createdAt,value
2018-09-09T00:01:32.350Z,18.50
2018-09-09T00:04:06.855Z,18.50
2018-09-09T00:06:42.562Z,18.40
2018-09-09T00:09:22.394Z,18.40
2018-09-09T00:11:58.123Z,18.40
2018-09-09T00:14:32.629Z,18.40
2018-09-09T00:17:09.677Z,18.30
2018-09-09T00:19:44.127Z,18.30
2018-09-09T00:22:18.719Z,18.20
2018-09-09T00:24:54.232Z,18.20
2018-09-09T00:27:29.886Z,18.20
2018-09-09T00:30:08.811Z,18.20
2018-09-09T00:32:43.397Z,18.20
2018-09-09T00:35:17.731Z,18.20
2018-09-09T00:37:52.067Z,18.10
2018-09-09T00:40:27.581Z,18.10
2018-09-09T00:43:03.392Z,18.10
2018-09-09T00:45:40.275Z,18.10
2018-09-09T00:48:15.140Z,18.20
2018-09-09T00:50:56.467Z,18.10
2018-09-09T00:53:36.403Z,18.10
2018-09-09T00:56:10.999Z,18.10
2018-09-09T00:58:45.689Z,18.00
2018-09-09T01:01:21.234Z,18.00
2018-09-09T01:03:55.756Z,18.10
2018-09-09T01:06:31.679Z,18.10
2018-09-09T01:09:08.703Z,18.10
2018-09-09T01:11:44.779Z,18.10
2018-09-09T01:14:19.318Z,18.00
2018-09-09T01:16:55.440Z,18.10
2018-09-09T01:19:30.341Z,18.00
2018-09-09T01:22:04.901Z,18.00
2018-09-09T01:24:40.503Z,18.10
2018-09-09T01:27:16.197Z,18.00
2018-09-09T01:29:50.947Z,18.00
2018-09-09T01:32:26.885Z,18.00
2018-09-09T01:35:05.052Z,18.00
2018-09-09T01:37:40.659Z,18.00
2018-09-09T01:40:19.365Z,18.00
2018-09-09T01:42:53.827Z,18.00
2018-09-09T01:45:31.272Z,18.00
2018-09-09T01:48:05.771Z,18.00
2018-09-09T01:50:40.180Z,18.00
2018-09-09T01:53:14.615Z,18.00
2018-09-09T01:55:49.363Z,18.00
2018-09-09T01:58:23.826Z,18.00
2018-09-09T02:00:59.640Z,18.00
2018-09-09T02:03:34.011Z,18.10
2018-09-09T02:06:09.920Z,18.10
2018-09-09T02:08:44.287Z,18.10
2018-09-09T02:11:19.956Z,18.10
2018-09-09T02:29:25.116Z,18.00
2018-09-09T02:32:01.111Z,17.90
2018-09-09T02:34:35.619Z,17.90
2018-09-09T02:37:11.608Z,17.90
2018-09-09T02:39:47.211Z,17.90
2018-09-09T02:42:21.587Z,17.90
2018-09-09T02:44:55.926Z,17.90
2018-09-09T02:47:30.419Z,17.80
2018-09-09T02:50:04.922Z,17.80
2018-09-09T02:52:39.171Z,17.80
2018-09-09T02:55:13.917Z,17.80
2018-09-09T02:57:48.434Z,17.80
2018-09-09T03:00:24.253Z,17.80
2018-09-09T03:02:58.730Z,17.90
2018-09-09T03:05:34.337Z,17.90
2018-09-09T03:08:10.173Z,17.90
2018-09-09T03:10:46.760Z,17.90
2018-09-09T03:13:21.173Z,17.80
2018-09-09T03:16:07.984Z,17.80
2018-09-09T03:18:42.927Z,17.90
2018-09-09T03:21:17.410Z,17.80
2018-09-09T03:23:52.874Z,17.80
2018-09-09T03:26:28.723Z,17.80
2018-09-09T03:29:04.793Z,17.80
2018-09-09T03:31:40.849Z,17.70
2018-09-09T03:34:15.289Z,17.70
2018-09-09T03:36:50.907Z,17.70
2018-09-09T03:39:25.727Z,17.60
2018-09-09T03:42:00.233Z,17.60
2018-09-09T03:44:34.760Z,17.60
2018-09-09T03:47:09.304Z,17.60
2018-09-09T03:49:43.967Z,17.60
2018-09-09T03:52:18.681Z,17.60
2018-09-09T03:54:53.173Z,17.60
2018-09-09T03:57:27.798Z,17.50
2018-09-09T04:00:03.816Z,17.50
2018-09-09T04:02:38.820Z,17.40
2018-09-09T04:05:14.266Z,17.40
2018-09-09T04:07:52.651Z,17.40
2018-09-09T04:10:28.459Z,17.40
2018-09-09T04:13:04.171Z,17.30
2018-09-09T04:15:38.447Z,17.30
2018-09-09T04:18:14.071Z,17.30
2018-09-09T04:20:48.559Z,17.30
2018-09-09T04:23:23.111Z,17.30
2018-09-09T04:25:58.833Z,17.20
2018-09-09T04:28:33.194Z,17.20
2018-09-09T04:31:09.344Z,17.20
2018-09-09T04:33:45.001Z,17.20
2018-09-09T04:36:19.414Z,17.10
2018-09-09T04:38:53.897Z,17.10
2018-09-09T04:41:28.708Z,17.00
2018-09-09T04:44:03.007Z,17.00
2018-09-09T04:46:38.326Z,17.00
2018-09-09T04:49:12.647Z,17.00
2018-09-09T04:51:47.231Z,17.00
2018-09-09T04:54:21.650Z,17.00
2018-09-09T04:56:56.339Z,17.00
2018-09-09T04:59:32.143Z,17.00
2018-09-09T05:02:06.666Z,17.10
2018-09-09T05:04:43.614Z,17.10
2018-09-09T05:07:19.198Z,17.00
2018-09-09T05:09:58.980Z,17.10
2018-09-09T05:12:33.371Z,17.10
2018-09-09T05:15:07.861Z,17.10
2018-09-09T05:17:43.667Z,17.10
2018-09-09T05:20:21.864Z,17.20
2018-09-09T05:22:56.460Z,17.20
2018-09-09T05:25:32.461Z,17.20
2018-09-09T05:28:08.215Z,17.20
2018-09-09T05:30:44.375Z,17.20
2018-09-09T05:33:18.833Z,17.30
2018-09-09T05:35:53.083Z,17.30
2018-09-09T05:38:27.655Z,17.30
2018-09-09T05:41:02.099Z,17.30
2018-09-09T05:43:36.735Z,17.30
2018-09-09T05:46:11.054Z,17.30
2018-09-09T05:48:49.632Z,17.40
2018-09-09T05:51:24.007Z,17.50
2018-09-09T05:53:58.407Z,17.60
2018-09-09T05:56:33.962Z,17.70
2018-09-09T05:59:14.610Z,17.80
2018-09-09T06:01:49.100Z,17.90
2018-09-09T06:04:25.076Z,17.90
2018-09-09T06:07:00.827Z,17.90
2018-09-09T06:09:36.463Z,18.00
2018-09-09T06:12:12.334Z,18.00
2018-09-09T06:14:46.626Z,18.20
2018-09-09T06:17:22.327Z,18.30
2018-09-09T06:19:56.793Z,18.40
2018-09-09T06:22:31.363Z,18.60
2018-09-09T06:25:07.252Z,18.70
2018-09-09T06:27:42.939Z,18.80
2018-09-09T06:30:18.899Z,19.00
2018-09-09T06:32:53.635Z,19.10
2018-09-09T06:35:27.962Z,19.20
2018-09-09T06:38:02.659Z,19.40
2018-09-09T06:40:37.181Z,19.50
2018-09-09T06:43:11.741Z,19.50
2018-09-09T06:45:47.804Z,19.50
2018-09-09T06:48:22.355Z,19.50
2018-09-09T06:50:56.612Z,19.60
2018-09-09T06:53:31.217Z,19.80
2018-09-09T06:56:05.658Z,19.90
2018-09-09T06:58:40.051Z,20.00
2018-09-09T07:01:15.949Z,20.10
2018-09-09T07:03:50.567Z,20.20
2018-09-09T07:06:26.656Z,20.40
2018-09-09T07:09:05.771Z,20.70
2018-09-09T07:11:41.509Z,21.00
2018-09-09T07:14:17.803Z,20.90
2018-09-09T07:16:53.744Z,20.90
2018-09-09T07:19:28.407Z,21.40
2018-09-09T07:22:03.275Z,21.40
2018-09-09T07:24:38.844Z,21.50
2018-09-09T07:27:14.547Z,21.10
2018-09-09T07:29:49.095Z,21.00
2018-09-09T07:32:25.648Z,21.40
2018-09-09T07:35:00.264Z,21.00
2018-09-09T07:37:36.058Z,21.00
2018-09-09T07:40:10.339Z,21.20
2018-09-09T07:42:44.839Z,21.70
2018-09-09T07:45:19.391Z,21.20
2018-09-09T07:47:53.974Z,20.90
2018-09-09T07:50:28.565Z,21.30
2018-09-09T07:53:03.000Z,21.70
2018-09-09T07:55:37.655Z,21.40
2018-09-09T07:58:12.032Z,21.80
2018-09-09T08:00:50.432Z,22.50
2018-09-09T08:03:24.875Z,22.70
2018-09-09T08:06:10.501Z,22.80
2018-09-09T08:08:46.319Z,22.70
2018-09-09T08:11:21.873Z,22.50
2018-09-09T08:13:56.268Z,22.70
2018-09-09T08:16:32.364Z,23.10
2018-09-09T08:19:07.101Z,23.60
2018-09-09T08:21:41.641Z,24.00
2018-09-09T08:24:17.783Z,24.40
2018-09-09T08:26:53.638Z,24.80
2018-09-09T08:29:29.507Z,25.00
2018-09-09T08:32:05.152Z,25.30
2018-09-09T08:34:39.613Z,24.30
2018-09-09T08:37:13.878Z,24.10
2018-09-09T08:39:48.198Z,23.60
2018-09-09T08:42:22.506Z,23.20
2018-09-09T08:44:56.982Z,23.30
2018-09-09T08:47:31.496Z,24.20
2018-09-09T08:50:06.200Z,24.30
2018-09-09T08:52:41.986Z,24.50
2018-09-09T08:55:16.589Z,24.30
2018-09-09T08:57:50.870Z,24.40
2018-09-09T09:00:26.652Z,25.20
2018-09-09T09:03:01.023Z,25.80
2018-09-09T09:05:37.771Z,25.90
2018-09-09T09:08:14.760Z,25.60
2018-09-09T09:10:50.734Z,25.00
2018-09-09T09:13:25.184Z,24.70
2018-09-09T09:15:59.890Z,25.50
2018-09-09T09:18:35.598Z,25.90
2018-09-09T09:21:11.452Z,26.20
2018-09-09T09:23:45.891Z,25.50
2018-09-09T09:26:21.505Z,24.40
2018-09-09T09:28:55.911Z,24.80
2018-09-09T09:31:31.571Z,24.40
2018-09-09T09:34:05.969Z,25.00
2018-09-09T09:36:40.369Z,25.40
2018-09-09T09:39:14.691Z,25.80
2018-09-09T09:41:49.201Z,25.70
2018-09-09T09:44:23.575Z,25.80
2018-09-09T09:46:58.099Z,25.90
2018-09-09T09:49:32.556Z,25.90
2018-09-09T09:52:07.561Z,26.10
2018-09-09T09:54:42.083Z,25.50
2018-09-09T09:57:17.274Z,25.00
2018-09-09T09:59:52.739Z,24.30
2018-09-09T10:02:28.522Z,23.70
2018-09-09T10:05:03.355Z,23.90
2018-09-09T10:07:39.158Z,24.40
2018-09-09T10:10:15.285Z,24.40
2018-09-09T10:12:49.644Z,24.50
2018-09-09T10:15:24.027Z,25.20
2018-09-09T10:18:00.440Z,25.10
2018-09-09T10:20:36.436Z,25.30
2018-09-09T10:23:10.803Z,25.70
2018-09-09T10:25:46.715Z,25.90
2018-09-09T10:28:21.187Z,26.20
2018-09-09T10:30:57.619Z,24.90
2018-09-09T10:33:32.052Z,24.20
2018-09-09T10:36:06.804Z,24.70
2018-09-09T10:38:41.157Z,25.30
2018-09-09T10:41:15.758Z,25.70
2018-09-09T10:43:50.276Z,26.20
2018-09-09T10:46:24.974Z,26.40
2018-09-09T10:48:59.324Z,26.60
2018-09-09T10:51:34.068Z,26.20
2018-09-09T10:54:09.857Z,26.00
2018-09-09T10:56:44.683Z,26.00
2018-09-09T10:59:20.463Z,26.30
2018-09-09T11:01:56.151Z,26.60
2018-09-09T11:04:30.600Z,26.80
2018-09-09T11:07:07.496Z,26.80
2018-09-09T11:09:44.008Z,27.10
2018-09-09T11:12:23.759Z,26.80
2018-09-09T11:14:59.527Z,27.00
2018-09-09T11:17:35.168Z,27.10
2018-09-09T11:20:09.547Z,27.30
2018-09-09T11:22:43.925Z,27.30
2018-09-09T11:28:01.061Z,27.40
2018-09-09T11:30:37.167Z,27.60
2018-09-09T11:33:11.835Z,27.70
2018-09-09T11:35:47.164Z,27.70
2018-09-09T11:38:21.507Z,27.90
2018-09-09T11:40:55.933Z,28.20
2018-09-09T11:43:30.379Z,28.10
2018-09-09T11:46:05.026Z,28.20
2018-09-09T11:48:39.391Z,28.30
2018-09-09T11:51:15.388Z,28.20
2018-09-09T11:53:49.902Z,28.00
2018-09-09T11:56:26.995Z,26.40
2018-09-09T11:59:02.662Z,25.70
2018-09-09T12:01:37.370Z,26.40
2018-09-09T12:04:11.762Z,27.00
2018-09-09T12:06:47.856Z,27.50
2018-09-09T12:09:23.311Z,27.60
2018-09-09T12:11:58.890Z,27.10
2018-09-09T12:14:34.603Z,27.20
2018-09-09T12:17:10.451Z,25.80
2018-09-09T12:19:44.781Z,25.20
2018-09-09T12:22:19.942Z,25.20
2018-09-09T12:24:55.898Z,25.80
2018-09-09T12:27:32.023Z,25.90
2018-09-09T12:30:11.038Z,26.40
2018-09-09T12:32:45.842Z,27.00
2018-09-09T12:35:21.847Z,27.40
2018-09-09T12:37:56.418Z,27.30
2018-09-09T12:40:30.812Z,25.90
2018-09-09T12:43:11.971Z,25.60
2018-09-09T12:45:51.674Z,25.90
2018-09-09T12:48:32.547Z,25.80
2018-09-09T12:51:08.556Z,25.40
2018-09-09T12:53:43.308Z,25.40
2018-09-09T12:56:17.623Z,26.00
2018-09-09T12:58:56.936Z,26.80
2018-09-09T13:01:31.199Z,26.80
2018-09-09T13:04:05.935Z,26.20
2018-09-09T13:06:41.676Z,26.00
2018-09-09T13:09:17.543Z,26.40
2018-09-09T13:11:53.543Z,26.80
2018-09-09T13:14:28.068Z,27.10
2018-09-09T13:17:10.175Z,27.60
2018-09-09T13:19:44.535Z,27.90
2018-09-09T13:22:19.265Z,28.10
2018-09-09T13:24:56.243Z,28.40
2018-09-09T13:27:31.948Z,28.70
2018-09-09T13:30:10.928Z,28.90
2018-09-09T13:32:53.508Z,29.00
2018-09-09T13:35:27.803Z,28.80
2018-09-09T13:38:03.212Z,28.40
2018-09-09T13:40:37.682Z,28.60
2018-09-09T13:43:12.059Z,28.70
2018-09-09T13:45:46.352Z,28.80
2018-09-09T13:48:22.443Z,28.80
2018-09-09T13:50:56.927Z,28.90
2018-09-09T13:53:31.452Z,29.10
2018-09-09T13:56:05.974Z,28.90
2018-09-09T14:09:08.281Z,27.40
2018-09-09T14:13:09.784Z,28.70
2018-09-09T14:15:44.081Z,29.10
2018-09-09T14:20:53.647Z,29.40
2018-09-09T14:23:28.427Z,29.50
2018-09-09T14:26:04.386Z,29.50
2018-09-09T14:28:38.755Z,29.60
2018-09-09T14:31:14.503Z,29.70
2018-09-09T14:33:49.085Z,29.40
2018-09-09T14:36:23.529Z,29.40
2018-09-09T14:38:57.896Z,29.50
2018-09-09T14:41:32.348Z,29.30
2018-09-09T14:44:08.147Z,29.40
2018-09-09T14:46:42.768Z,29.30
2018-09-09T14:49:18.436Z,29.30
2018-09-09T14:51:53.018Z,29.40
2018-09-09T14:54:28.103Z,29.50
2018-09-09T14:57:02.436Z,29.50
2018-09-09T14:59:39.370Z,29.60
2018-09-09T15:02:15.061Z,29.70
2018-09-09T15:04:49.666Z,29.80
2018-09-09T15:07:32.687Z,29.50
2018-09-09T15:10:08.814Z,29.60
2018-09-09T15:12:44.808Z,29.80
2018-09-09T15:15:20.787Z,30.40
2018-09-09T15:17:56.415Z,30.90
2018-09-09T15:20:30.873Z,31.40
2018-09-09T15:23:05.759Z,31.70
2018-09-09T15:25:45.210Z,32.10
2018-09-09T15:28:19.739Z,32.50
2018-09-09T15:30:55.637Z,33.10
2018-09-09T15:33:30.434Z,33.20
2018-09-09T15:36:05.244Z,33.70
2018-09-09T15:38:39.707Z,33.90
2018-09-09T15:41:17.471Z,34.10
2018-09-09T15:43:52.836Z,34.30
2018-09-09T15:51:36.500Z,34.20
2018-09-09T16:30:30.762Z,31.40
2018-09-09T16:33:05.347Z,29.30
2018-09-09T16:35:40.117Z,29.40
2018-09-09T16:38:15.631Z,29.30
2018-09-09T16:40:50.071Z,29.20
2018-09-09T16:43:24.486Z,28.90
2018-09-09T16:45:58.870Z,28.90
2018-09-09T16:48:33.807Z,28.70
2018-09-09T16:51:08.594Z,28.80
2018-09-09T16:53:44.013Z,28.80
2018-09-09T16:56:27.903Z,28.80
2018-09-09T16:59:04.700Z,28.80
2018-09-09T17:01:41.034Z,28.70
2018-09-09T17:04:17.319Z,28.70
2018-09-09T17:06:54.002Z,28.60
2018-09-09T17:09:29.983Z,28.50
2018-09-09T17:12:06.314Z,28.30
2018-09-09T17:14:41.490Z,28.30
2018-09-09T17:17:17.387Z,28.20
2018-09-09T17:19:53.123Z,28.20
2018-09-09T17:22:27.950Z,28.10
2018-09-09T17:25:03.795Z,28.00
2018-09-09T17:27:41.892Z,28.00
2018-09-09T17:30:18.163Z,27.80
2018-09-09T17:32:54.436Z,27.70
2018-09-09T17:35:29.524Z,27.60
2018-09-09T17:38:04.125Z,27.40
2018-09-09T17:40:38.805Z,27.40
2018-09-09T17:43:14.419Z,27.20
2018-09-09T17:45:51.070Z,27.00
2018-09-09T17:48:27.782Z,26.70
2018-09-09T17:51:02.542Z,26.50
2018-09-09T17:53:37.120Z,26.30
2018-09-09T17:56:11.772Z,26.10
2018-09-09T17:58:48.334Z,25.90
2018-09-09T18:01:24.528Z,25.80
2018-09-09T18:03:58.996Z,25.70
2018-09-09T18:06:35.059Z,25.50
2018-09-09T18:09:11.727Z,25.40
2018-09-09T18:11:47.743Z,25.30
2018-09-09T18:14:22.611Z,25.20
2018-09-09T18:17:00.337Z,25.10
2018-09-09T18:19:35.140Z,25.00
2018-09-09T18:22:09.864Z,24.90
2018-09-09T18:24:49.268Z,24.80
2018-09-09T18:27:26.168Z,24.70
2018-09-09T18:30:18.824Z,24.60
2018-09-09T18:32:54.784Z,24.60
2018-09-09T18:35:29.701Z,24.60
2018-09-09T18:40:45.554Z,24.40
2018-09-09T18:43:20.214Z,24.30
2018-09-09T18:45:58.270Z,24.20
2018-09-09T18:48:33.304Z,24.10
2018-09-09T18:51:08.116Z,24.00
2018-09-09T18:53:42.441Z,23.90
2018-09-09T18:56:17.758Z,23.90
2018-09-09T18:58:57.321Z,23.90
2018-09-09T19:01:32.779Z,23.80
2018-09-09T19:04:07.441Z,23.70
2018-09-09T19:06:47.186Z,23.70
2018-09-09T19:09:27.203Z,23.60
2018-09-09T19:12:06.444Z,23.60
2018-09-09T19:14:41.383Z,23.60
2018-09-09T19:17:20.215Z,23.60
2018-09-09T19:19:55.863Z,23.40
2018-09-09T19:22:30.835Z,23.40
2018-09-09T19:25:10.402Z,23.40
2018-09-09T19:27:59.837Z,23.40
2018-09-09T19:30:38.316Z,23.20
2018-09-09T19:33:16.834Z,23.10
2018-09-09T19:35:51.406Z,23.00
2018-09-09T19:38:26.739Z,23.00
2018-09-09T19:41:01.711Z,23.00
2018-09-09T19:43:41.309Z,23.00
2018-09-09T19:46:15.944Z,23.00
2018-09-09T19:48:50.724Z,22.90
2018-09-09T19:51:25.179Z,22.90
2018-09-09T19:54:03.724Z,22.90
2018-09-09T19:56:39.452Z,22.90
2018-09-09T19:59:15.235Z,22.90
2018-09-09T20:01:50.979Z,22.90
2018-09-09T20:04:26.655Z,22.90
2018-09-09T20:07:02.196Z,22.90
2018-09-09T20:09:37.971Z,22.80
2018-09-09T20:12:13.782Z,22.70
2018-09-09T20:14:51.578Z,22.70
2018-09-09T20:17:29.126Z,22.70
2018-09-09T20:20:05.060Z,22.70
2018-09-09T20:22:40.836Z,22.60
2018-09-09T20:25:16.707Z,22.60
2018-09-09T20:27:52.979Z,22.60
2018-09-09T20:30:29.033Z,22.50
2018-09-09T20:33:03.671Z,22.50
2018-09-09T20:35:38.058Z,22.50
2018-09-09T20:38:13.059Z,22.40
2018-09-09T20:40:47.497Z,22.50
2018-09-09T20:43:22.159Z,22.40
2018-09-09T20:45:56.722Z,22.40
2018-09-09T20:48:31.897Z,22.30
2018-09-09T20:51:06.375Z,22.20
2018-09-09T20:53:42.728Z,22.20
2018-09-09T20:56:17.210Z,22.20
2018-09-09T20:58:53.483Z,22.20
2018-09-09T21:01:28.181Z,22.10
2018-09-09T21:04:02.944Z,22.20
2018-09-09T21:06:39.063Z,22.20
2018-09-09T21:09:14.933Z,22.10
2018-09-09T21:11:51.452Z,22.00
2018-09-09T21:14:26.202Z,22.00
2018-09-09T21:17:03.432Z,21.90
2018-09-09T21:19:39.755Z,21.80
2018-09-09T21:22:15.483Z,21.70
2018-09-09T21:24:51.484Z,21.60
2018-09-09T21:27:27.479Z,21.60
2018-09-09T21:30:12.131Z,21.60
2018-09-09T21:32:46.933Z,21.60
2018-09-09T21:35:21.580Z,21.50
2018-09-09T21:37:55.985Z,21.50
2018-09-09T21:40:30.907Z,21.40
2018-09-09T21:43:05.523Z,21.40
2018-09-09T21:45:41.388Z,21.40
2018-09-09T21:48:15.991Z,21.40
2018-09-09T21:50:51.697Z,21.40
2018-09-09T21:54:50.851Z,21.40
2018-09-09T21:57:26.971Z,21.30
2018-09-09T22:00:01.971Z,21.10
2018-09-09T22:02:37.964Z,21.10
2018-09-09T22:05:13.811Z,21.10
2018-09-09T22:07:49.802Z,21.10
2018-09-09T22:10:25.935Z,21.00
2018-09-09T22:13:00.290Z,21.00
2018-09-09T22:15:36.281Z,21.00
2018-09-09T22:18:12.063Z,21.00
2018-09-09T22:20:46.512Z,20.90
2018-09-09T22:23:20.925Z,21.00
2018-09-09T22:25:56.542Z,20.90
2018-09-09T22:28:36.884Z,20.80
2018-09-09T22:31:12.775Z,20.70
2018-09-09T22:33:47.210Z,20.70
2018-09-09T22:36:21.548Z,20.60
2018-09-09T22:38:56.184Z,20.50
2018-09-09T22:41:30.454Z,20.40
2018-09-09T22:44:05.491Z,20.40
2018-09-09T22:46:39.927Z,20.30
2018-09-09T22:49:15.590Z,20.40
2018-09-09T22:51:50.088Z,20.40
2018-09-09T22:54:26.180Z,20.30
2018-09-09T22:57:00.527Z,20.30
2018-09-09T22:59:36.111Z,20.20
2018-09-09T23:02:10.455Z,20.20
2018-09-09T23:04:45.163Z,20.10
2018-09-09T23:07:20.915Z,20.10
2018-09-09T23:10:03.284Z,20.00
2018-09-09T23:12:38.705Z,19.90
2018-09-09T23:15:13.111Z,19.80
2018-09-09T23:17:48.815Z,19.70
2018-09-09T23:20:23.384Z,19.70
2018-09-09T23:22:57.816Z,19.60
2018-09-09T23:25:33.149Z,19.60
2018-09-09T23:28:08.603Z,19.60
2018-09-09T23:30:44.464Z,19.50
2018-09-09T23:33:18.766Z,19.40
2018-09-09T23:35:53.699Z,19.30
2018-09-09T23:38:28.195Z,19.30
2018-09-09T23:41:02.732Z,19.20
2018-09-09T23:43:42.888Z,19.20
2018-09-09T23:46:19.142Z,19.20
2018-09-09T23:48:53.675Z,19.20
2018-09-09T23:51:28.114Z,19.10
2018-09-09T23:54:02.559Z,19.10
2018-09-09T23:56:36.951Z,18.90
2018-09-09T23:59:11.289Z,18.80
